createdAt,value
2023-01-17T00:02:24.716Z,98695.47
2023-01-17T00:05:10.867Z,98705.75
2023-01-17T00:07:57.100Z,98724.97
2023-01-17T00:10:27.741Z,98733.44
2023-01-17T00:13:02.012Z,98732.97
2023-01-17T00:15:31.377Z,98739.19
2023-01-17T00:17:59.542Z,98725.69
2023-01-17T00:20:49.591Z,98714.03
2023-01-17T00:23:45.473Z,98713.94
2023-01-17T00:26:19.336Z,98702.19
2023-01-17T00:28:49.054Z,98694.03
2023-01-17T00:31:17.687Z,98712.97
2023-01-17T00:33:45.184Z,98722.84
2023-01-17T00:36:12.878Z,98708.09
2023-01-17T00:38:41.284Z,98724.44
2023-01-17T00:41:12.335Z,98724.97
2023-01-17T00:43:58.739Z,98693.97
2023-01-17T00:46:45.472Z,98686.44
2023-01-17T00:49:31.815Z,98697.72
2023-01-17T00:52:17.820Z,98673.69
2023-01-17T00:55:03.771Z,98682.25
2023-01-17T00:57:50.214Z,98675.16
2023-01-17T01:00:39.719Z,98652.41
2023-01-17T01:03:30.426Z,98657.00
2023-01-17T01:06:16.739Z,98667.13
2023-01-17T01:09:02.940Z,98645.72
2023-01-17T01:11:49.086Z,98652.72
2023-01-17T01:14:35.168Z,98647.25
2023-01-17T01:17:21.316Z,98644.00
2023-01-17T01:20:07.627Z,98655.53
2023-01-17T01:22:53.867Z,98633.66
2023-01-17T01:25:40.039Z,98663.00
2023-01-17T01:28:30.917Z,98646.63
2023-01-17T01:31:21.975Z,98654.38
2023-01-17T01:33:53.154Z,98627.22
2023-01-17T01:36:21.491Z,98612.47
2023-01-17T01:38:50.345Z,98618.41
2023-01-17T01:41:18.104Z,98627.75
2023-01-17T01:43:54.623Z,98624.13
2023-01-17T01:46:33.439Z,98610.78
2023-01-17T01:49:20.809Z,98598.84
2023-01-17T01:52:01.181Z,98597.19
2023-01-17T01:54:40.063Z,98600.56
2023-01-17T01:57:11.872Z,98597.91
2023-01-17T01:59:46.982Z,98603.00
2023-01-17T02:02:14.973Z,98629.00
2023-01-17T02:04:45.099Z,98621.63
2023-01-17T02:07:21.617Z,98634.06
2023-01-17T02:09:50.171Z,98631.91
2023-01-17T02:12:20.282Z,98620.28
2023-01-17T02:14:47.887Z,98609.47
2023-01-17T02:17:42.880Z,98629.91
2023-01-17T02:20:58.218Z,98629.97
2023-01-17T02:24:14.627Z,98643.53
2023-01-17T02:26:58.423Z,98646.69
2023-01-17T02:29:47.363Z,98640.03
2023-01-17T02:32:32.933Z,98628.34
2023-01-17T02:35:39.325Z,98619.97
2023-01-17T02:38:44.079Z,98610.44
2023-01-17T02:41:23.614Z,98614.16
2023-01-17T02:43:53.427Z,98619.50
2023-01-17T02:46:21.336Z,98598.94
2023-01-17T02:48:49.568Z,98592.38
2023-01-17T02:51:25.994Z,98593.41
2023-01-17T02:54:22.594Z,98617.09
2023-01-17T02:57:02.567Z,98620.59
2023-01-17T03:00:00.630Z,98599.13
2023-01-17T03:03:04.593Z,98589.47
2023-01-17T03:05:47.228Z,98600.19
2023-01-17T03:08:16.336Z,98585.75
2023-01-17T03:10:45.300Z,98582.69
2023-01-17T03:13:12.860Z,98576.75
2023-01-17T03:15:41.736Z,98572.56
2023-01-17T03:18:16.872Z,98571.94
2023-01-17T03:20:44.556Z,98561.91
2023-01-17T03:23:12.150Z,98554.56
2023-01-17T03:25:39.643Z,98542.03
2023-01-17T03:28:07.282Z,98542.44
2023-01-17T03:30:34.877Z,98531.97
2023-01-17T03:33:02.520Z,98518.44
2023-01-17T03:35:30.018Z,98516.41
2023-01-17T03:37:57.585Z,98519.53
2023-01-17T03:40:25.123Z,98511.66
2023-01-17T03:42:52.615Z,98519.41
2023-01-17T03:45:20.167Z,98530.53
2023-01-17T03:47:47.656Z,98528.72
2023-01-17T03:50:15.462Z,98521.44
2023-01-17T03:52:43.130Z,98518.72
2023-01-17T03:55:11.089Z,98513.81
2023-01-17T03:57:38.740Z,98518.97
2023-01-17T04:00:07.851Z,98519.16
2023-01-17T04:02:35.625Z,98513.06
2023-01-17T04:05:03.451Z,98515.06
2023-01-17T04:07:33.610Z,98500.56
2023-01-17T04:10:01.670Z,98483.25
2023-01-17T04:12:29.253Z,98483.28
2023-01-17T04:14:56.729Z,98493.03
2023-01-17T04:17:24.652Z,98503.00
2023-01-17T04:19:52.412Z,98500.47
2023-01-17T04:22:19.863Z,98517.91
2023-01-17T04:24:47.426Z,98528.56
2023-01-17T04:27:14.938Z,98521.28
2023-01-17T04:29:42.499Z,98504.53
2023-01-17T04:32:10.075Z,98492.53
2023-01-17T04:34:37.564Z,98490.19
2023-01-17T04:37:05.025Z,98506.19
2023-01-17T04:39:32.527Z,98516.56
2023-01-17T04:42:00.017Z,98522.34
2023-01-17T04:44:27.533Z,98513.06
2023-01-17T04:46:54.981Z,98486.41
2023-01-17T04:49:22.485Z,98486.00
2023-01-17T04:51:50.061Z,98480.84
2023-01-17T04:54:17.621Z,98490.16
2023-01-17T04:56:45.109Z,98491.34
2023-01-17T04:59:12.652Z,98483.53
2023-01-17T05:01:40.351Z,98497.34
2023-01-17T05:04:07.964Z,98488.31
2023-01-17T05:06:35.527Z,98496.69
2023-01-17T05:09:03.104Z,98506.75
2023-01-17T05:11:30.649Z,98507.06
2023-01-17T05:13:58.244Z,98516.50
2023-01-17T05:16:27.640Z,98520.59
2023-01-17T05:18:55.178Z,98499.47
2023-01-17T05:21:23.287Z,98527.84
2023-01-17T05:23:50.916Z,98524.59
2023-01-17T05:26:18.608Z,98527.06
2023-01-17T05:28:46.172Z,98528.88
2023-01-17T05:31:13.930Z,98531.22
2023-01-17T05:33:41.540Z,98525.00
2023-01-17T05:36:10.038Z,98532.38
2023-01-17T05:38:37.468Z,98521.53
2023-01-17T05:41:05.207Z,98536.34
2023-01-17T05:43:32.771Z,98538.81
2023-01-17T05:46:01.001Z,98532.09
2023-01-17T05:48:28.582Z,98545.03
2023-01-17T05:50:56.442Z,98552.81
2023-01-17T05:53:25.187Z,98564.00
2023-01-17T05:55:52.716Z,98551.81
2023-01-17T05:58:22.677Z,98558.22
2023-01-17T06:00:51.763Z,98560.16
2023-01-17T06:03:19.525Z,98542.63
2023-01-17T06:05:47.462Z,98559.97
2023-01-17T06:08:15.856Z,98532.94
2023-01-17T06:10:43.515Z,98531.09
2023-01-17T06:13:15.401Z,98557.84
2023-01-17T06:15:43.068Z,98556.84
2023-01-17T06:18:16.371Z,98581.34
2023-01-17T06:20:44.812Z,98564.75
2023-01-17T06:23:15.133Z,98565.59
2023-01-17T06:25:47.383Z,98571.28
2023-01-17T06:28:21.081Z,98558.97
2023-01-17T06:30:49.262Z,98558.81
2023-01-17T06:33:17.415Z,98582.16
2023-01-17T06:35:52.862Z,98575.69
2023-01-17T06:38:21.584Z,98566.84
2023-01-17T06:40:49.175Z,98548.28
2023-01-17T06:43:17.105Z,98536.34
2023-01-17T06:45:44.570Z,98527.25
2023-01-17T06:48:12.241Z,98544.88
2023-01-17T06:50:39.709Z,98544.75
2023-01-17T06:53:07.759Z,98569.38
2023-01-17T06:55:39.638Z,98556.66
2023-01-17T06:58:07.127Z,98558.53
2023-01-17T07:00:40.288Z,98569.22
2023-01-17T07:03:22.628Z,98550.22
2023-01-17T07:05:51.220Z,98551.41
2023-01-17T07:08:20.487Z,98556.56
2023-01-17T07:10:49.090Z,98538.97
2023-01-17T07:13:16.705Z,98554.69
2023-01-17T07:15:44.256Z,98555.38
2023-01-17T07:18:11.793Z,98536.41
2023-01-17T07:20:39.305Z,98564.69
2023-01-17T07:23:06.917Z,98565.94
2023-01-17T07:25:34.394Z,98560.91
2023-01-17T07:28:02.160Z,98582.41
2023-01-17T07:30:31.273Z,98556.09
2023-01-17T07:32:58.835Z,98556.84
2023-01-17T07:35:26.802Z,98566.72
2023-01-17T07:37:55.403Z,98572.47
2023-01-17T07:40:23.659Z,98574.34
2023-01-17T07:42:51.281Z,98568.94
2023-01-17T07:45:19.928Z,98575.72
2023-01-17T07:47:48.902Z,98567.16
2023-01-17T07:50:16.542Z,98546.03
2023-01-17T07:52:44.108Z,98559.88
2023-01-17T07:55:11.683Z,98557.88
2023-01-17T07:57:39.104Z,98555.44
2023-01-17T08:00:08.157Z,98559.94
2023-01-17T08:02:41.812Z,98566.38
2023-01-17T08:05:09.892Z,98562.84
2023-01-17T08:07:37.639Z,98569.13
2023-01-17T08:10:07.411Z,98576.97
2023-01-17T08:12:36.110Z,98576.91
2023-01-17T08:15:03.821Z,98574.75
2023-01-17T08:17:31.502Z,98584.28
2023-01-17T08:19:59.226Z,98576.44
2023-01-17T08:22:27.160Z,98579.22
2023-01-17T08:24:54.671Z,98590.22
2023-01-17T08:27:22.271Z,98594.53
2023-01-17T08:29:49.841Z,98580.31
2023-01-17T08:32:17.430Z,98587.41
2023-01-17T08:34:44.872Z,98596.06
2023-01-17T08:37:12.333Z,98593.28
2023-01-17T08:39:39.915Z,98579.59
2023-01-17T08:42:07.447Z,98579.47
2023-01-17T08:44:36.002Z,98570.59
2023-01-17T08:47:03.532Z,98570.59
2023-01-17T08:49:30.979Z,98583.38
2023-01-17T08:51:58.593Z,98577.66
2023-01-17T08:54:26.105Z,98561.38
2023-01-17T08:56:55.741Z,98570.13
2023-01-17T08:59:23.672Z,98578.59
2023-01-17T09:01:52.563Z,98565.53
2023-01-17T09:04:20.294Z,98566.09
2023-01-17T09:06:48.480Z,98563.06
2023-01-17T09:09:17.784Z,98561.38
2023-01-17T09:11:45.319Z,98554.81
2023-01-17T09:14:14.061Z,98570.69
2023-01-17T09:16:41.619Z,98592.03
2023-01-17T09:19:11.541Z,98586.47
2023-01-17T09:21:39.038Z,98588.22
2023-01-17T09:24:06.828Z,98606.34
2023-01-17T09:26:34.490Z,98599.00
2023-01-17T09:29:02.009Z,98605.31
2023-01-17T09:31:30.135Z,98605.09
2023-01-17T09:33:59.040Z,98595.06
2023-01-17T09:36:34.832Z,98607.00
2023-01-17T09:39:03.885Z,98587.53
2023-01-17T09:41:49.936Z,98605.78
2023-01-17T09:44:51.703Z,98614.19
2023-01-17T09:47:45.475Z,98599.78
2023-01-17T09:50:16.069Z,98590.59
2023-01-17T09:52:45.031Z,98585.97
2023-01-17T09:55:17.709Z,98586.09
2023-01-17T09:58:02.849Z,98590.75
2023-01-17T10:00:56.253Z,98577.47
2023-01-17T10:03:59.823Z,98569.78
2023-01-17T10:07:10.693Z,98570.59
2023-01-17T10:10:33.563Z,98559.06
2023-01-17T10:13:33.312Z,98549.03
2023-01-17T10:16:28.160Z,98539.59
2023-01-17T10:19:15.089Z,98538.56
2023-01-17T10:22:13.349Z,98529.28
2023-01-17T10:24:52.316Z,98535.97
2023-01-17T10:27:29.525Z,98531.84
2023-01-17T10:29:58.087Z,98544.63
2023-01-17T10:32:31.723Z,98535.25
2023-01-17T10:35:08.072Z,98522.69
2023-01-17T10:37:43.783Z,98521.19
2023-01-17T10:40:29.540Z,98520.13
2023-01-17T10:43:20.514Z,98530.41
2023-01-17T10:45:57.760Z,98521.66
2023-01-17T10:48:53.963Z,98537.56
2023-01-17T10:52:08.402Z,98530.38
2023-01-17T10:54:55.274Z,98507.88
2023-01-17T10:57:28.254Z,98506.03
2023-01-17T11:00:01.439Z,98507.75
2023-01-17T11:02:43.054Z,98516.09
2023-01-17T11:05:29.095Z,98520.78
2023-01-17T11:08:11.336Z,98523.72
2023-01-17T11:10:54.062Z,98525.00
2023-01-17T11:13:35.696Z,98511.88
2023-01-17T11:16:13.120Z,98508.63
2023-01-17T11:18:41.053Z,98514.00
2023-01-17T11:21:26.066Z,98513.06
2023-01-17T11:23:57.302Z,98489.66
2023-01-17T11:26:33.010Z,98476.25
2023-01-17T11:29:32.342Z,98481.31
2023-01-17T11:32:35.197Z,98490.84
2023-01-17T11:35:18.914Z,98473.34
2023-01-17T11:37:59.279Z,98470.31
2023-01-17T11:40:49.895Z,98479.91
2023-01-17T11:43:27.383Z,98477.34
2023-01-17T11:46:18.034Z,98477.13
2023-01-17T11:48:56.055Z,98465.75
2023-01-17T11:51:32.459Z,98473.09
2023-01-17T11:54:25.926Z,98480.63
2023-01-17T11:57:01.284Z,98483.00
2023-01-17T11:59:35.197Z,98478.47
2023-01-17T12:02:25.862Z,98473.88
2023-01-17T12:05:09.452Z,98467.63
2023-01-17T12:07:47.149Z,98478.44
2023-01-17T12:10:49.321Z,98483.97
2023-01-17T12:14:01.120Z,98469.03
2023-01-17T12:16:55.732Z,98455.88
2023-01-17T12:19:32.392Z,98445.31
2023-01-17T12:22:14.406Z,98450.22
2023-01-17T12:25:28.763Z,98451.91
2023-01-17T12:28:53.058Z,98439.25
2023-01-17T12:31:41.515Z,98438.47
2023-01-17T12:34:25.024Z,98434.63
2023-01-17T12:37:07.453Z,98421.13
2023-01-17T12:39:41.291Z,98433.66
2023-01-17T12:42:44.596Z,98432.66
2023-01-17T12:45:33.762Z,98442.97
2023-01-17T12:48:15.003Z,98434.53
2023-01-17T12:50:52.695Z,98423.25
2023-01-17T12:54:01.688Z,98407.56
2023-01-17T12:56:44.455Z,98411.00
2023-01-17T12:59:38.223Z,98411.06
2023-01-17T13:02:31.988Z,98412.56
2023-01-17T13:05:40.557Z,98406.19
2023-01-17T13:08:24.511Z,98408.38
2023-01-17T13:11:12.158Z,98415.34
2023-01-17T13:13:43.385Z,98410.53
2023-01-17T13:16:37.660Z,98404.63
2023-01-17T13:19:27.650Z,98395.09
2023-01-17T13:21:58.205Z,98396.81
2023-01-17T13:25:00.477Z,98411.41
2023-01-17T13:27:27.875Z,98417.56
2023-01-17T13:30:01.271Z,98416.81
2023-01-17T13:33:18.476Z,98413.41
2023-01-17T13:36:17.416Z,98419.84
2023-01-17T13:39:29.660Z,98414.47
2023-01-17T13:42:10.930Z,98417.38
2023-01-17T13:44:39.126Z,98415.19
2023-01-17T13:47:18.816Z,98414.75
2023-01-17T13:49:50.694Z,98409.88
2023-01-17T13:52:21.105Z,98409.53
2023-01-17T13:55:01.964Z,98412.25
2023-01-17T13:57:31.588Z,98410.34
2023-01-17T14:00:25.098Z,98404.19
2023-01-17T14:02:55.499Z,98408.53
2023-01-17T14:05:47.481Z,98405.72
2023-01-17T14:08:21.891Z,98408.16
2023-01-17T14:10:54.026Z,98394.50
2023-01-17T14:13:37.368Z,98403.06
2023-01-17T14:16:31.388Z,98403.69
2023-01-17T14:18:59.242Z,98402.69
2023-01-17T14:21:32.757Z,98408.75
2023-01-17T14:24:18.305Z,98409.56
2023-01-17T14:27:15.864Z,98399.06
2023-01-17T14:29:47.400Z,98393.25
2023-01-17T14:32:20.554Z,98394.53
2023-01-17T14:34:53.139Z,98396.50
2023-01-17T14:37:46.134Z,98397.09
2023-01-17T14:40:26.645Z,98395.78
2023-01-17T14:43:13.236Z,98388.13
2023-01-17T14:45:43.115Z,98387.94
2023-01-17T14:48:23.984Z,98385.03
2023-01-17T14:51:01.881Z,98385.47
2023-01-17T14:53:33.977Z,98380.31
2023-01-17T14:56:16.984Z,98385.41
2023-01-17T14:58:46.671Z,98379.31
2023-01-17T15:01:18.901Z,98380.16
2023-01-17T15:03:54.760Z,98375.56
2023-01-17T15:06:39.014Z,98370.72
2023-01-17T15:09:18.473Z,98375.78
2023-01-17T15:11:50.602Z,98381.19
2023-01-17T15:14:42.098Z,98388.19
2023-01-17T15:17:21.927Z,98384.41
2023-01-17T15:19:56.027Z,98384.81
2023-01-17T15:22:25.891Z,98387.91
2023-01-17T15:24:54.454Z,98394.78
2023-01-17T15:27:22.299Z,98391.44
2023-01-17T15:29:51.251Z,98401.75
2023-01-17T15:32:28.037Z,98398.44
2023-01-17T15:34:57.080Z,98406.13
2023-01-17T15:37:34.964Z,98400.16
2023-01-17T15:40:19.088Z,98399.53
2023-01-17T15:42:59.497Z,98404.88
2023-01-17T15:45:33.402Z,98395.25
2023-01-17T15:48:41.208Z,98407.94
2023-01-17T15:51:12.541Z,98403.88
2023-01-17T15:53:44.045Z,98404.84
2023-01-17T15:56:32.997Z,98409.94
2023-01-17T15:59:32.678Z,98412.84
2023-01-17T16:02:00.309Z,98406.97
2023-01-17T16:04:34.793Z,98414.44
2023-01-17T16:07:20.482Z,98412.66
2023-01-17T16:09:53.966Z,98405.03
2023-01-17T16:12:22.752Z,98411.81
2023-01-17T16:15:06.605Z,98412.41
2023-01-17T16:17:48.817Z,98417.19
2023-01-17T16:20:58.608Z,98411.13
2023-01-17T16:23:26.700Z,98410.38
2023-01-17T16:25:54.218Z,98417.69
2023-01-17T16:28:21.916Z,98416.16
2023-01-17T16:30:49.562Z,98414.91
2023-01-17T16:33:17.161Z,98424.53
2023-01-17T16:35:44.823Z,98428.19
2023-01-17T16:38:19.880Z,98418.53
2023-01-17T16:40:48.437Z,98429.72
2023-01-17T16:43:18.997Z,98419.88
2023-01-17T16:45:50.379Z,98424.03
2023-01-17T16:48:19.295Z,98432.00
2023-01-17T16:50:52.246Z,98423.28
2023-01-17T16:53:27.146Z,98426.56
2023-01-17T16:56:08.518Z,98420.88
2023-01-17T16:58:42.009Z,98414.16
2023-01-17T17:01:16.075Z,98421.03
2023-01-17T17:03:47.155Z,98409.59
2023-01-17T17:06:15.168Z,98407.81
2023-01-17T17:08:45.935Z,98410.81
2023-01-17T17:11:23.239Z,98410.47
2023-01-17T17:13:52.285Z,98394.75
2023-01-17T17:16:26.636Z,98399.13
2023-01-17T17:18:59.836Z,98387.41
2023-01-17T17:21:28.673Z,98391.69
2023-01-17T17:23:58.894Z,98393.31
2023-01-17T17:26:34.498Z,98380.78
2023-01-17T17:29:03.398Z,98381.94
2023-01-17T17:31:31.003Z,98381.03
2023-01-17T17:34:03.010Z,98379.44
2023-01-17T17:36:31.512Z,98375.81
2023-01-17T17:39:01.090Z,98373.97
2023-01-17T17:41:35.157Z,98370.50
2023-01-17T17:44:05.528Z,98362.69
2023-01-17T17:46:35.209Z,98366.56
2023-01-17T17:49:27.186Z,98368.66
2023-01-17T17:51:54.939Z,98359.44
2023-01-17T17:54:25.727Z,98359.81
2023-01-17T17:56:53.982Z,98350.63
2023-01-17T17:59:24.287Z,98360.63
2023-01-17T18:01:52.644Z,98359.84
2023-01-17T18:04:21.740Z,98363.03
2023-01-17T18:06:49.922Z,98358.63
2023-01-17T18:09:17.851Z,98362.38
2023-01-17T18:11:49.600Z,98369.50
2023-01-17T18:14:21.229Z,98359.03
2023-01-17T18:16:49.157Z,98362.63
2023-01-17T18:19:24.107Z,98355.25
2023-01-17T18:21:52.625Z,98353.72
2023-01-17T18:24:41.951Z,98350.13
2023-01-17T18:27:10.791Z,98348.75
2023-01-17T18:29:59.449Z,98347.28
2023-01-17T18:32:31.586Z,98345.84
2023-01-17T18:35:03.178Z,98339.53
2023-01-17T18:37:33.396Z,98327.34
2023-01-17T18:40:01.409Z,98314.59
2023-01-17T18:42:33.901Z,98315.53
2023-01-17T18:45:04.995Z,98319.81
2023-01-17T18:47:38.764Z,98308.03
2023-01-17T18:50:07.702Z,98302.19
2023-01-17T18:52:35.493Z,98307.63
2023-01-17T18:55:03.165Z,98296.41
2023-01-17T18:57:31.703Z,98291.84
2023-01-17T19:00:00.092Z,98291.91
2023-01-17T19:02:30.807Z,98298.47
2023-01-17T19:04:58.947Z,98306.41
2023-01-17T19:07:29.867Z,98289.16
2023-01-17T19:09:57.503Z,98278.19
2023-01-17T19:12:26.389Z,98292.50
2023-01-17T19:14:54.103Z,98281.97
2023-01-17T19:17:22.015Z,98274.78
2023-01-17T19:19:50.862Z,98270.66
2023-01-17T19:22:18.663Z,98265.59
2023-01-17T19:24:48.795Z,98282.66
2023-01-17T19:27:18.995Z,98279.97
2023-01-17T19:29:47.209Z,98287.63
2023-01-17T19:32:16.115Z,98288.31
2023-01-17T19:34:43.836Z,98297.75
2023-01-17T19:37:11.537Z,98279.06
2023-01-17T19:39:42.022Z,98275.97
2023-01-17T19:42:29.759Z,98288.97
2023-01-17T19:44:58.082Z,98285.72
2023-01-17T19:47:25.831Z,98290.22
2023-01-17T19:49:53.515Z,98278.59
2023-01-17T19:52:22.494Z,98279.00
2023-01-17T19:54:50.787Z,98285.84
2023-01-17T19:57:23.315Z,98277.38
2023-01-17T19:59:52.195Z,98276.75
2023-01-17T20:02:20.217Z,98275.44
2023-01-17T20:04:53.531Z,98270.69
2023-01-17T20:07:22.977Z,98279.47
2023-01-17T20:09:50.727Z,98277.66
2023-01-17T20:12:18.614Z,98285.78
2023-01-17T20:14:46.359Z,98281.00
2023-01-17T20:17:14.012Z,98270.00
2023-01-17T20:19:46.666Z,98275.28
2023-01-17T20:22:14.276Z,98282.78
2023-01-17T20:24:43.325Z,98281.59
2023-01-17T20:27:14.519Z,98277.28
2023-01-17T20:29:46.332Z,98279.84
2023-01-17T20:32:13.905Z,98284.88
2023-01-17T20:34:45.535Z,98274.59
2023-01-17T20:37:15.780Z,98278.06
2023-01-17T20:39:48.127Z,98273.22
2023-01-17T20:42:15.977Z,98272.94
2023-01-17T20:44:43.686Z,98262.66
2023-01-17T20:47:11.274Z,98265.56
2023-01-17T20:49:45.057Z,98267.66
2023-01-17T20:52:15.457Z,98264.94
2023-01-17T20:54:48.633Z,98257.75
2023-01-17T20:57:17.574Z,98259.13
2023-01-17T20:59:49.945Z,98264.78
2023-01-17T21:02:19.248Z,98271.59
2023-01-17T21:04:47.912Z,98278.72
2023-01-17T21:07:16.413Z,98272.38
2023-01-17T21:09:43.982Z,98264.00
2023-01-17T21:12:11.531Z,98266.69
2023-01-17T21:14:43.061Z,98264.47
2023-01-17T21:17:16.196Z,98264.69
2023-01-17T21:19:44.160Z,98259.38
2023-01-17T21:22:16.680Z,98263.38
2023-01-17T21:24:44.244Z,98259.84
2023-01-17T21:27:13.026Z,98262.50
2023-01-17T21:29:40.599Z,98268.72
2023-01-17T21:32:08.761Z,98269.41
2023-01-17T21:34:36.423Z,98268.88
2023-01-17T21:37:05.609Z,98262.13
2023-01-17T21:39:36.194Z,98281.84
2023-01-17T21:42:03.796Z,98279.38
2023-01-17T21:44:36.999Z,98279.94
2023-01-17T21:47:04.651Z,98275.16
2023-01-17T21:49:32.534Z,98274.69
2023-01-17T21:52:00.155Z,98268.78
2023-01-17T21:54:48.706Z,98248.56
2023-01-17T21:57:40.541Z,98250.94
2023-01-17T22:00:15.887Z,98253.97
2023-01-17T22:03:07.869Z,98255.31
2023-01-17T22:05:35.859Z,98266.34
2023-01-17T22:08:12.697Z,98258.50
2023-01-17T22:10:45.735Z,98253.78
2023-01-17T22:13:20.543Z,98246.75
2023-01-17T22:15:59.524Z,98244.91
2023-01-17T22:18:28.609Z,98239.47
2023-01-17T22:20:57.416Z,98232.09
2023-01-17T22:23:27.516Z,98224.78
2023-01-17T22:26:00.857Z,98224.66
2023-01-17T22:28:32.072Z,98228.47
2023-01-17T22:31:11.032Z,98219.56
2023-01-17T22:33:40.912Z,98232.56
2023-01-17T22:36:10.720Z,98227.09
2023-01-17T22:38:38.180Z,98221.63
2023-01-17T22:41:16.123Z,98215.25
2023-01-17T22:43:49.737Z,98203.72
2023-01-17T22:46:24.981Z,98205.13
2023-01-17T22:48:54.853Z,98199.19
2023-01-17T22:53:34.481Z,98194.06
2023-01-17T22:56:06.971Z,98193.25
2023-01-17T22:58:35.634Z,98195.88
2023-01-17T23:01:09.011Z,98194.59
2023-01-17T23:03:37.063Z,98197.59
2023-01-17T23:06:26.159Z,98202.25
2023-01-17T23:08:57.109Z,98200.44
2023-01-17T23:11:41.330Z,98199.59
2023-01-17T23:14:53.897Z,98198.97
2023-01-17T23:17:42.345Z,98208.25
2023-01-17T23:20:12.070Z,98210.31
2023-01-17T23:22:40.117Z,98206.66
2023-01-17T23:25:13.016Z,98202.38
2023-01-17T23:28:04.790Z,98189.69
2023-01-17T23:30:34.612Z,98192.28
2023-01-17T23:33:08.399Z,98187.44
2023-01-17T23:35:41.726Z,98175.84
2023-01-17T23:38:34.666Z,98186.66
2023-01-17T23:41:26.088Z,98181.69
2023-01-17T23:43:58.984Z,98182.19
2023-01-17T23:46:27.484Z,98193.50
2023-01-17T23:48:55.395Z,98189.88
2023-01-17T23:51:24.111Z,98194.16
2023-01-17T23:53:57.399Z,98198.06
2023-01-17T23:56:25.289Z,98204.31
2023-01-17T23:58:52.821Z,98195.31
